Time;durP1;ratioP1;P1;durP2;ratioP2;P2;SDS_P1;SDS_P2;PMS_P1;PMS_P2;Temp;Humidity;BMP_temperature;BMP_pressure;BME280_temperature;BME280_humidity;BME280_pressure;Samples;Min_cycle;Max_cycle;Signal;HPM_P1;HPM_P2
2022/06/12 00:01:17;;;;;;;4.65;2.97;;;;;;;24.40;45.67;99846.31;4448088;32;33407;-67
2022/06/12 00:03:45;;;;;;;5.53;2.80;;;;;;;24.31;45.84;99843.94;4447211;32;33938;-66
2022/06/12 00:06:15;;;;;;;5.43;2.95;;;;;;;24.50;45.22;99845.97;4449241;32;31738;-66
2022/06/12 00:08:43;;;;;;;7.87;3.20;;;;;;;24.47;45.31;99848.28;4438545;32;32827;-65
2022/06/12 00:11:16;;;;;;;6.78;3.50;;;;;;;24.51;45.35;99850.41;4449482;32;32694;-67
2022/06/12 00:13:47;;;;;;;6.53;4.12;;;;;;;24.57;45.10;99846.84;4450081;32;33152;-66
2022/06/12 00:16:16;;;;;;;5.47;3.47;;;;;;;24.49;45.02;99848.91;4446845;32;33427;-67
2022/06/12 00:18:44;;;;;;;6.65;3.53;;;;;;;24.47;45.03;99843.66;4448913;32;34402;-67
2022/06/12 00:21:11;;;;;;;5.82;3.40;;;;;;;24.46;45.17;99839.19;4447269;32;35467;-66
2022/06/12 00:23:50;;;;;;;5.20;3.08;;;;;;;24.23;45.73;99830.44;4443430;32;34627;-68
2022/06/12 00:26:29;;;;;;;4.57;3.17;;;;;;;24.32;45.52;99835.53;4440486;32;32251;-65
2022/06/12 00:28:59;;;;;;;5.22;3.22;;;;;;;24.34;45.24;99827.13;4444338;32;34946;-65
2022/06/12 00:31:29;;;;;;;4.90;3.37;;;;;;;24.38;45.07;99832.00;4446155;32;35473;-68
2022/06/12 00:33:57;;;;;;;5.97;3.42;;;;;;;24.37;45.22;99827.56;4448350;32;33835;-66
2022/06/12 00:36:24;;;;;;;15.30;3.55;;;;;;;24.28;45.59;99815.09;4446809;32;33457;-66
2022/06/12 00:38:52;;;;;;;8.75;3.85;;;;;;;24.23;45.19;99822.22;4447350;32;33829;-66
2022/06/12 00:41:20;;;;;;;6.30;3.95;;;;;;;24.21;45.14;99825.16;4446416;32;34734;-68
2022/06/12 00:43:48;;;;;;;4.62;3.22;;;;;;;24.18;45.10;99829.16;4445992;32;33651;-65
2022/06/12 00:46:39;;;;;;;5.70;3.10;;;;;;;24.22;45.01;99826.00;4446205;32;32103;-65
2022/06/12 00:49:15;;;;;;;5.12;3.35;;;;;;;24.26;43.84;99825.41;4447263;32;34967;-63
2022/06/12 00:51:44;;;;;;;5.72;3.40;;;;;;;23.65;44.69;99825.16;4441675;32;34031;-63
2022/06/12 00:54:12;;;;;;;6.12;3.30;;;;;;;23.87;44.63;99832.28;4444500;32;32536;-62
2022/06/12 00:56:47;;;;;;;5.50;3.28;;;;;;;23.92;43.91;99824.34;4448661;32;33246;-62
2022/06/12 00:59:26;;;;;;;5.93;3.90;;;;;;;24.04;43.63;99823.78;4446796;32;33665;-65
2022/06/12 01:01:53;;;;;;;5.18;3.45;;;;;;;24.09;42.84;99819.41;4446743;32;32293;-66
2022/06/12 01:07:12;;;;;;;4.80;3.03;;;;;;;23.20;43.54;99824.53;4444699;32;32080;-68
2022/06/12 01:09:43;;;;;;;5.32;3.50;;;;;;;23.11;43.78;99822.97;4446317;32;31922;-65
2022/06/12 01:12:14;;;;;;;4.97;2.90;;;;;;;23.79;41.75;99817.91;4447414;32;33426;-67
2022/06/12 01:15:17;;;;;;;4.68;2.72;;;;;;;23.89;41.49;99810.25;4442306;32;32625;-66
2022/06/12 01:17:46;;;;;;;5.43;3.28;;;;;;;24.09;41.21;99813.09;4444502;32;32609;-65
2022/06/12 01:20:20;;;;;;;4.53;2.97;;;;;;;23.85;41.93;99807.06;4447484;32;32959;-65
2022/06/12 01:23:11;;;;;;;5.28;3.05;;;;;;;23.75;43.41;99814.75;4433450;32;35304;-65
2022/06/12 01:25:48;;;;;;;5.82;3.00;;;;;;;24.17;41.76;99813.78;4443154;32;32209;-66
2022/06/12 01:28:40;;;;;;;4.90;3.20;;;;;;;24.19;42.06;99813.56;4446312;32;32541;-64
2022/06/12 01:31:24;;;;;;;7.30;3.15;;;;;;;24.28;41.98;99809.63;4447460;32;33467;-65
2022/06/12 01:34:09;;;;;;;5.28;2.85;;;;;;;24.38;42.14;99810.09;4443427;32;34029;-66
2022/06/12 01:37:02;;;;;;;4.53;3.05;;;;;;;24.40;41.54;99816.22;4446277;32;34261;-64
2022/06/12 01:39:58;;;;;;;4.82;2.90;;;;;;;24.18;42.33;99810.00;4435377;32;31984;-66
2022/06/12 01:42:36;;;;;;;5.47;2.95;;;;;;;24.16;42.14;99813.97;4445948;32;32633;-64
2022/06/12 01:45:32;;;;;;;4.12;2.67;;;;;;;24.11;42.67;99811.88;4447157;32;34079;-66
2022/06/12 01:48:02;;;;;;;;;;;;;;;24.21;42.99;99816.97;4446400;32;33816;-64
2022/06/12 01:50:43;;;;;;;5.30;3.05;;;;;;;24.20;43.41;99812.53;4447264;32;33141;-71
2022/06/12 01:53:29;;;;;;;4.93;2.92;;;;;;;24.12;43.32;99809.97;4445094;32;35217;-66
2022/06/12 01:56:23;;;;;;;4.57;2.70;;;;;;;23.94;44.42;99813.19;4446737;32;34011;-66
2022/06/12 01:58:56;;;;;;;6.90;2.92;;;;;;;23.96;43.61;99811.13;4454754;32;32263;-65
2022/06/12 02:01:33;;;;;;;5.70;2.92;;;;;;;24.01;43.39;99810.50;4448038;32;33546;-65
2022/06/12 02:04:07;;;;;;;5.00;2.75;;;;;;;23.96;43.23;99810.28;4446335;32;34903;-66
2022/06/12 02:06:58;;;;;;;5.70;2.70;;;;;;;23.90;43.22;99812.75;4446376;32;33765;-66
2022/06/12 02:09:33;;;;;;;6.20;2.90;;;;;;;23.91;42.68;99802.66;4448014;32;32421;-67
2022/06/12 02:14:59;;;;;;;6.87;3.05;;;;;;;23.83;43.26;99800.94;4437720;32;33802;-67
2022/06/12 02:17:33;;;;;;;4.50;2.62;;;;;;;23.87;43.26;99801.38;4445476;32;33746;-65
2022/06/12 02:20:04;;;;;;;6.37;2.97;;;;;;;23.92;42.93;99799.75;4445470;32;33618;-69
2022/06/12 02:22:32;;;;;;;5.95;2.70;;;;;;;23.78;43.04;99802.56;4446744;32;33029;-65
2022/06/12 02:25:06;;;;;;;4.07;2.53;;;;;;;23.81;42.89;99805.75;4448801;32;34060;-66
2022/06/12 02:27:40;;;;;;;4.97;2.78;;;;;;;23.88;42.66;99805.81;4442663;32;34148;-66
2022/06/12 02:30:16;;;;;;;4.30;2.33;;;;;;;23.88;42.23;99803.94;4445813;32;34162;-65
2022/06/12 02:32:52;;;;;;;5.07;2.72;;;;;;;23.96;41.86;99805.66;4442010;32;33620;-65
2022/06/12 02:35:21;;;;;;;;;;;;;;;23.74;41.72;99815.78;4444135;32;34553;-65
2022/06/12 02:38:18;;;;;;;5.10;2.55;;;;;;;23.75;41.97;99808.44;4445829;32;34167;-68
2022/06/12 02:40:49;;;;;;;7.05;3.37;;;;;;;23.80;41.90;99806.81;4447505;32;35000;-67
2022/06/12 02:43:21;;;;;;;5.10;2.67;;;;;;;23.72;42.61;99812.41;4446033;32;32059;-65
2022/06/12 02:45:53;;;;;;;4.60;2.90;;;;;;;23.70;42.17;99814.50;4446237;32;35383;-65
2022/06/12 02:48:21;;;;;;;6.70;2.65;;;;;;;23.91;42.10;99810.87;4443257;32;32342;-66
2022/06/12 02:51:00;;;;;;;3.95;2.70;;;;;;;23.89;42.10;99808.34;4446737;32;33946;-65
2022/06/12 02:53:46;;;;;;;5.62;2.85;;;;;;;23.87;41.97;99815.06;4446798;32;31745;-65
2022/06/12 02:56:48;;;;;;;4.12;2.70;;;;;;;23.86;42.18;99813.38;4445436;32;33892;-65
2022/06/12 02:59:30;;;;;;;5.90;2.97;;;;;;;23.84;42.49;99819.03;4442894;32;35037;-68
2022/06/12 03:02:18;;;;;;;7.10;3.00;;;;;;;23.75;42.57;99817.47;4444339;32;34440;-66
2022/06/12 03:04:57;;;;;;;4.47;2.92;;;;;;;23.76;42.32;99816.44;4443140;32;35096;-65
2022/06/12 03:07:25;;;;;;;5.07;2.60;;;;;;;23.73;42.36;99821.47;4432946;32;32403;-67
2022/06/12 03:09:53;;;;;;;5.00;3.03;;;;;;;23.70;42.36;99825.44;4445580;32;34206;-66
2022/06/12 03:12:20;;;;;;;4.78;2.85;;;;;;;23.56;42.75;99821.69;4447069;32;33823;-67
2022/06/12 03:14:52;;;;;;;4.40;2.90;;;;;;;23.55;43.30;99817.28;4445833;32;34362;-68
2022/06/12 03:17:20;;;;;;;4.65;2.62;;;;;;;23.62;43.70;99829.09;4444868;32;33648;-66
2022/06/12 03:19:51;;;;;;;5.43;2.30;;;;;;;23.38;44.01;99826.81;4445516;32;33651;-66
2022/06/12 03:22:41;;;;;;;4.03;2.55;;;;;;;23.42;43.48;99826.22;4445551;32;32804;-68
2022/06/12 03:25:23;;;;;;;5.00;2.70;;;;;;;23.39;43.60;99823.88;4443055;32;33694;-66
2022/06/12 03:27:53;;;;;;;5.12;2.78;;;;;;;23.36;44.39;99831.63;4443476;32;33841;-67
2022/06/12 03:30:26;;;;;;;4.80;3.00;;;;;;;23.20;44.01;99829.97;4441847;32;33555;-67
2022/06/12 03:33:17;;;;;;;4.87;2.92;;;;;;;23.28;44.11;99829.88;4444064;32;34025;-69
2022/06/12 03:36:02;;;;;;;6.43;3.03;;;;;;;23.40;44.21;99830.19;4445144;32;33242;-68
2022/06/12 03:38:47;;;;;;;6.22;2.95;;;;;;;23.18;44.60;99835.66;4445424;32;33990;-68
2022/06/12 03:41:43;;;;;;;5.82;3.10;;;;;;;23.07;45.05;99835.31;4447684;32;33834;-68
2022/06/12 03:44:40;;;;;;;7.20;3.55;;;;;;;22.66;45.52;99833.13;4448839;32;35027;-71
2022/06/12 03:47:17;;;;;;;6.57;3.28;;;;;;;22.76;45.99;99833.66;4439874;32;33442;-67
2022/06/12 03:49:59;;;;;;;5.60;2.95;;;;;;;23.02;45.45;99833.16;4447150;32;33666;-66
2022/06/12 03:52:29;;;;;;;5.80;2.90;;;;;;;23.08;45.54;99831.53;4448203;32;33446;-67
2022/06/12 03:55:01;;;;;;;4.97;2.90;;;;;;;23.11;45.96;99839.34;4444407;32;32807;-66
2022/06/12 03:57:51;;;;;;;4.22;2.47;;;;;;;23.36;44.70;99837.06;4444787;32;34098;-67
2022/06/12 04:00:41;;;;;;;4.87;2.58;;;;;;;23.42;44.52;99836.28;4443643;32;34978;-69
2022/06/12 04:03:13;;;;;;;5.07;2.70;;;;;;;23.53;44.31;99843.97;4444195;32;33859;-67
2022/06/12 04:05:45;;;;;;;4.78;2.87;;;;;;;23.62;43.97;99834.56;4441366;32;33944;-66
2022/06/12 04:08:20;;;;;;;5.85;2.70;;;;;;;23.53;44.21;99843.09;4444480;32;34269;-68
2022/06/12 04:10:48;;;;;;;4.95;2.53;;;;;;;23.42;44.86;99839.88;4448570;32;33718;-66
2022/06/12 04:13:18;;;;;;;5.35;2.50;;;;;;;23.42;44.92;99839.03;4446909;32;33884;-65
2022/06/12 04:15:54;;;;;;;5.43;2.85;;;;;;;23.39;45.44;99839.41;4447782;32;32338;-67
2022/06/12 04:18:26;;;;;;;4.93;2.80;;;;;;;23.47;45.67;99836.56;4435205;32;33138;-66
2022/06/12 04:21:17;;;;;;;4.82;2.80;;;;;;;23.68;45.05;99846.59;4445974;32;33924;-67
2022/06/12 04:24:06;;;;;;;6.00;2.87;;;;;;;23.87;44.68;99845.12;4441974;32;32606;-67
2022/06/12 04:26:41;;;;;;;4.22;2.45;;;;;;;23.95;44.18;99847.72;4446187;32;34381;-68
2022/06/12 04:29:12;;;;;;;8.65;2.67;;;;;;;23.85;44.15;99848.06;4446605;32;34337;-67
2022/06/12 04:31:43;;;;;;;5.22;3.20;;;;;;;23.72;44.57;99847.94;4443041;32;32669;-66
2022/06/12 04:34:19;;;;;;;4.70;2.40;;;;;;;24.01;43.70;99849.63;4443299;32;34545;-67
2022/06/12 04:36:50;;;;;;;4.90;2.70;;;;;;;24.16;43.30;99852.25;4448492;32;35409;-66
2022/06/12 04:39:22;;;;;;;4.62;2.47;;;;;;;24.25;42.57;99848.31;4445192;32;33696;-67
2022/06/12 04:41:51;;;;;;;5.80;2.50;;;;;;;24.36;42.28;99855.13;4448999;32;32829;-67
2022/06/12 04:44:19;;;;;;;6.10;2.72;;;;;;;24.25;42.07;99852.97;4453207;32;32420;-68
2022/06/12 04:46:48;;;;;;;4.60;2.55;;;;;;;24.39;42.13;99858.28;4448248;32;33939;-65
2022/06/12 04:49:19;;;;;;;4.60;2.50;;;;;;;24.26;42.69;99862.84;4444845;32;33409;-65
2022/06/12 04:51:47;;;;;;;6.85;2.83;;;;;;;24.42;42.32;99857.06;4448020;32;33756;-67
2022/06/12 04:54:15;;;;;;;5.50;2.72;;;;;;;24.49;43.71;99857.09;4445378;32;34217;-68
2022/06/12 04:56:43;;;;;;;6.10;2.70;;;;;;;24.51;43.38;99857.75;4448292;32;34681;-66
2022/06/12 04:59:14;;;;;;;3.92;2.30;;;;;;;24.68;42.45;99861.84;4447458;32;33470;-66
2022/06/12 05:01:42;;;;;;;5.47;2.87;;;;;;;24.70;42.17;99865.22;4444595;32;33949;-67
2022/06/12 05:04:12;;;;;;;4.82;2.45;;;;;;;24.56;42.70;99850.66;4447506;32;33948;-67
2022/06/12 05:06:40;;;;;;;5.62;2.35;;;;;;;24.71;42.68;99850.47;4444585;32;34256;-68
2022/06/12 05:09:09;;;;;;;7.05;2.90;;;;;;;24.66;41.67;99857.63;4446365;32;32249;-69
2022/06/12 05:11:37;;;;;;;4.22;2.42;;;;;;;24.74;41.32;99847.34;4451454;32;35088;-67
2022/06/12 05:14:04;;;;;;;5.95;2.58;;;;;;;24.87;42.04;99855.59;4442398;32;32332;-67
2022/06/12 05:16:32;;;;;;;5.32;2.58;;;;;;;24.86;42.89;99855.81;4448272;32;35072;-67
2022/06/12 05:19:01;;;;;;;5.55;2.37;;;;;;;24.67;41.36;99860.16;4447441;32;33103;-67
2022/06/12 05:21:30;;;;;;;5.78;2.78;;;;;;;24.91;41.67;99852.44;4449348;32;34634;-67
2022/06/12 05:23:59;;;;;;;4.97;2.53;;;;;;;25.02;42.17;99855.44;4447787;32;34280;-65
2022/06/12 05:26:28;;;;;;;5.45;2.85;;;;;;;25.20;42.40;99854.91;4455167;32;33687;-67
2022/06/12 05:28:56;;;;;;;7.82;2.70;;;;;;;25.25;41.32;99863.31;4451448;32;34440;-68
2022/06/12 05:31:23;;;;;;;4.55;2.25;;;;;;;25.32;40.62;99864.19;4441442;32;33990;-67
2022/06/12 05:33:53;;;;;;;5.07;2.70;;;;;;;25.27;41.44;99869.47;4443752;32;35160;-70
2022/06/12 05:36:22;;;;;;;6.00;2.65;;;;;;;25.23;40.57;99870.94;4451631;32;33976;-68
2022/06/12 05:38:50;;;;;;;4.43;2.25;;;;;;;25.06;40.80;99875.03;4446606;32;33539;-69
2022/06/12 05:41:19;;;;;;;4.78;2.47;;;;;;;24.96;40.90;99871.84;4454186;32;33483;-68
2022/06/12 05:43:46;;;;;;;5.10;2.30;;;;;;;25.17;40.96;99882.72;4451492;32;34013;-69
2022/06/12 05:46:16;;;;;;;6.47;2.67;;;;;;;25.21;41.64;99881.25;4455489;32;34886;-68
2022/06/12 05:48:45;;;;;;;5.07;2.83;;;;;;;24.95;41.34;99876.50;4440185;32;33497;-69
2022/06/12 05:51:15;;;;;;;5.75;2.45;;;;;;;24.85;40.95;99881.50;4435728;32;33570;-67
2022/06/12 05:53:44;;;;;;;5.18;2.45;;;;;;;25.17;40.86;99877.22;4443083;32;33087;-68
2022/06/12 05:56:15;;;;;;;6.78;3.10;;;;;;;24.74;41.37;99882.91;4458947;32;35193;-68
2022/06/12 05:58:42;;;;;;;5.25;2.97;;;;;;;24.91;40.98;99886.16;4450345;32;32933;-70
2022/06/12 06:01:12;;;;;;;5.20;2.80;;;;;;;25.04;41.63;99879.87;4448696;32;34968;-70
2022/06/12 06:03:40;;;;;;;5.85;2.97;;;;;;;25.01;41.19;99883.88;4449785;32;34961;-67
2022/06/12 06:06:11;;;;;;;4.60;2.58;;;;;;;25.28;41.11;99881.25;4458611;32;34764;-68
2022/06/12 06:08:38;;;;;;;4.57;2.80;;;;;;;25.13;40.88;99886.87;4461124;32;32593;-70
2022/06/12 06:11:07;;;;;;;5.47;3.20;;;;;;;24.89;41.17;99890.16;4449295;32;32458;-69
2022/06/12 06:13:35;;;;;;;4.37;2.50;;;;;;;25.12;41.73;99889.81;4448645;32;35744;-66
2022/06/12 06:16:03;;;;;;;6.15;2.92;;;;;;;25.27;40.47;99888.63;4451726;32;33579;-70
2022/06/12 06:18:30;;;;;;;6.05;3.15;;;;;;;24.91;40.80;99888.91;4448635;32;31542;-70
2022/06/12 06:20:58;;;;;;;7.60;2.12;;;;;;;24.75;41.44;99892.84;4451180;32;33924;-69
2022/06/12 06:23:25;;;;;;;5.32;2.78;;;;;;;24.82;41.40;99896.44;4445233;32;34054;-68
2022/06/12 06:25:53;;;;;;;4.68;2.70;;;;;;;24.35;43.15;99887.09;4442399;32;32078;-71
2022/06/12 06:28:21;;;;;;;4.97;2.55;;;;;;;24.73;41.81;99900.41;4450096;32;33717;-69
2022/06/12 06:30:49;;;;;;;5.28;3.05;;;;;;;24.90;40.86;99889.94;4445957;32;34151;-71
2022/06/12 06:33:16;;;;;;;5.85;2.90;;;;;;;24.64;41.53;99893.41;4446879;32;35242;-70
2022/06/12 06:35:44;;;;;;;5.70;2.58;;;;;;;24.71;40.99;99894.28;4448901;32;33533;-70
2022/06/12 06:38:12;;;;;;;7.15;3.05;;;;;;;25.12;41.58;99893.44;4447538;32;33402;-68
2022/06/12 06:40:41;;;;;;;5.93;2.65;;;;;;;25.19;41.25;99894.28;4435332;32;33989;-68
2022/06/12 06:43:09;;;;;;;4.50;2.67;;;;;;;24.91;40.58;99899.00;4446105;32;33769;-69
2022/06/12 06:48:25;;;;;;;6.68;2.60;;;;;;;25.69;40.09;99893.97;4450010;32;34477;-68
2022/06/12 06:50:53;;;;;;;5.03;2.90;;;;;;;25.49;39.86;99891.19;4448131;32;33777;-68
2022/06/12 06:53:21;;;;;;;5.20;2.80;;;;;;;25.86;39.95;99897.19;4436816;32;33777;-69
2022/06/12 06:55:49;;;;;;;4.53;2.60;;;;;;;25.64;40.17;99889.09;4441937;32;34453;-69
2022/06/12 06:58:22;;;;;;;4.30;2.55;;;;;;;25.37;39.38;99890.97;4447904;32;33778;-68
2022/06/12 07:00:50;;;;;;;4.00;2.30;;;;;;;25.67;40.57;99899.66;4447319;32;33998;-68
2022/06/12 07:03:18;;;;;;;3.85;2.40;;;;;;;25.84;40.67;99893.78;4449288;32;35087;-68
2022/06/12 07:05:48;;;;;;;6.00;3.10;;;;;;;25.29;40.10;99897.47;4450494;32;34064;-68
2022/06/12 07:08:17;;;;;;;5.20;2.83;;;;;;;25.73;40.12;99892.50;4449952;32;34659;-68
2022/06/12 07:10:46;;;;;;;6.95;2.70;;;;;;;26.01;39.16;99900.56;4450663;32;33828;-69
2022/06/12 07:13:13;;;;;;;5.07;2.70;;;;;;;26.01;39.49;99898.66;4441876;32;33760;-68
2022/06/12 07:15:42;;;;;;;5.78;2.83;;;;;;;25.64;40.34;99894.59;4451348;32;32793;-68
2022/06/12 07:18:11;;;;;;;5.05;3.00;;;;;;;26.43;37.90;99901.97;4451533;32;33718;-69
2022/06/12 07:20:48;;;;;;;7.40;2.87;;;;;;;25.98;39.68;99899.06;4455855;32;33973;-70
2022/06/12 07:23:18;;;;;;;4.97;2.70;;;;;;;25.74;40.14;99894.16;4453732;32;33937;-68
2022/06/12 07:25:50;;;;;;;4.12;2.65;;;;;;;25.89;38.52;99894.00;4443786;32;34065;-68
2022/06/12 07:28:18;;;;;;;5.18;2.70;;;;;;;25.95;39.04;99890.44;4437906;32;32727;-68
2022/06/12 07:30:47;;;;;;;4.37;2.65;;;;;;;26.03;39.77;99892.94;4455434;32;34898;-69
2022/06/12 07:33:14;;;;;;;4.07;2.78;;;;;;;25.66;38.43;99889.75;4450548;32;34000;-68
2022/06/12 07:35:43;;;;;;;5.18;2.72;;;;;;;26.24;37.89;99881.75;4442003;32;32436;-69
2022/06/12 07:38:13;;;;;;;5.85;2.85;;;;;;;26.42;38.53;99881.09;4438477;32;33658;-68
2022/06/12 07:40:45;;;;;;;4.75;2.65;;;;;;;26.03;38.71;99876.47;4455813;32;32064;-68
2022/06/12 07:43:13;;;;;;;4.53;2.65;;;;;;;26.24;38.28;99886.37;4441843;32;34115;-70
2022/06/12 07:45:42;;;;;;;4.28;2.40;;;;;;;26.30;39.13;99885.53;4450351;32;34200;-70
2022/06/12 07:48:10;;;;;;;5.20;3.00;;;;;;;26.20;36.92;99885.97;4443817;32;34302;-69
2022/06/12 07:50:40;;;;;;;4.05;2.33;;;;;;;25.82;37.76;99882.22;4452561;32;34235;-68
2022/06/12 07:53:09;;;;;;;3.90;2.42;;;;;;;26.50;37.49;99884.69;4442170;32;32521;-72
2022/06/12 07:55:37;;;;;;;5.87;3.20;;;;;;;26.79;37.14;99886.06;4456119;32;35167;-72
2022/06/12 07:58:05;;;;;;;4.60;2.47;;;;;;;26.58;37.51;99884.44;4443686;32;33493;-72
2022/06/12 08:00:34;;;;;;;5.68;3.12;;;;;;;26.44;37.86;99878.94;4452694;32;34005;-71
2022/06/12 08:03:03;;;;;;;5.60;2.72;;;;;;;26.42;39.19;99883.84;4429547;32;33787;-74
2022/06/12 08:05:31;;;;;;;5.70;2.40;;;;;;;26.34;39.21;99888.69;4449553;32;33129;-69
2022/06/12 08:07:59;;;;;;;4.43;2.65;;;;;;;25.98;39.41;99881.78;4456281;32;33426;-68
2022/06/12 08:10:27;;;;;;;5.57;2.95;;;;;;;26.20;38.96;99885.97;4440696;32;33998;-69
2022/06/12 08:12:56;;;;;;;6.95;3.20;;;;;;;26.37;38.76;99874.56;4450876;32;33295;-70
2022/06/12 08:15:27;;;;;;;5.35;2.72;;;;;;;26.47;38.73;99884.00;4450558;32;34439;-70
2022/06/12 08:17:56;;;;;;;3.95;2.55;;;;;;;26.57;37.87;99875.34;4452124;32;33645;-70
2022/06/12 08:20:26;;;;;;;5.53;3.20;;;;;;;26.54;37.64;99877.69;4448487;32;33991;-71
2022/06/12 08:23:26;;;;;;;5.32;2.80;;;;;;;26.65;37.73;99882.53;4448561;32;33745;-74
2022/06/12 08:26:02;;;;;;;3.75;2.45;;;;;;;26.76;38.07;99873.59;4450407;32;35047;-72
2022/06/12 08:28:33;;;;;;;4.20;2.67;;;;;;;26.36;37.18;99875.62;4456248;32;33650;-70
2022/06/12 08:31:04;;;;;;;5.05;2.67;;;;;;;26.80;37.18;99865.78;4463395;32;34157;-72
2022/06/12 08:33:32;;;;;;;8.23;3.42;;;;;;;26.84;37.91;99872.53;4450327;32;35089;-69
2022/06/12 08:36:00;;;;;;;4.45;2.65;;;;;;;26.98;36.92;99856.84;4445879;32;35125;-68
2022/06/12 08:38:28;;;;;;;5.57;2.55;;;;;;;26.75;37.27;99862.88;4448917;32;34765;-69
2022/06/12 08:41:21;;;;;;;5.68;2.95;;;;;;;26.71;39.12;99866.03;4450436;32;33748;-68
2022/06/12 08:43:49;;;;;;;5.10;2.90;;;;;;;26.88;38.39;99873.78;4448568;32;34069;-68
2022/06/12 08:46:24;;;;;;;5.30;2.75;;;;;;;27.14;38.00;99868.19;4450162;32;33744;-68
2022/06/12 08:49:02;;;;;;;5.50;2.50;;;;;;;26.86;37.75;99863.00;4447392;32;33578;-69
2022/06/12 08:51:44;;;;;;;4.47;2.62;;;;;;;27.09;37.53;99867.12;4436903;32;32709;-71
2022/06/12 08:54:21;;;;;;;8.05;3.10;;;;;;;27.56;36.79;99868.53;4444982;32;35045;-67
2022/06/12 08:57:06;;;;;;;5.25;3.00;;;;;;;27.31;36.08;99868.50;4435958;32;33176;-70
2022/06/12 08:59:45;;;;;;;4.68;2.83;;;;;;;27.27;37.60;99871.91;4449803;32;33594;-66
2022/06/12 09:02:26;;;;;;;3.95;2.55;;;;;;;27.53;36.99;99868.16;4451339;32;32383;-67
2022/06/12 09:04:58;;;;;;;4.80;2.85;;;;;;;27.52;35.93;99864.56;4448985;32;34183;-66
2022/06/12 09:07:52;;;;;;;4.10;2.72;;;;;;;28.16;35.66;99865.34;4450842;32;33974;-67
2022/06/12 09:10:31;;;;;;;5.37;2.87;;;;;;;27.43;37.11;99868.66;4452150;32;34905;-67
2022/06/12 09:13:49;;;;;;;4.87;2.50;;;;;;;27.32;36.59;99866.59;4450152;32;34882;-65
2022/06/12 09:16:29;;;;;;;4.47;2.47;;;;;;;27.53;37.07;99859.91;4397983;32;33405;-66
2022/06/12 09:19:14;;;;;;;4.45;2.58;;;;;;;27.39;37.00;99871.00;4443806;32;34714;-66
2022/06/12 09:21:46;;;;;;;4.45;2.50;;;;;;;27.81;35.04;99859.50;4448254;32;33395;-66
2022/06/12 09:24:41;;;;;;;4.30;2.35;;;;;;;27.73;36.05;99857.84;4449164;32;34798;-67
2022/06/12 09:27:18;;;;;;;4.22;2.55;;;;;;;27.91;36.22;99861.75;4435846;32;35635;-67
2022/06/12 09:30:03;;;;;;;7.90;3.17;;;;;;;28.11;35.47;99862.41;4448419;32;32860;-66
2022/06/12 09:32:31;;;;;;;;;;;;;;;27.71;36.41;99854.50;4449653;32;33720;-67
2022/06/12 09:35:07;;;;;;;5.00;2.50;;;;;;;28.36;34.87;99856.87;4449001;32;33079;-68
2022/06/12 09:38:19;;;;;;;4.12;2.72;;;;;;;28.59;35.14;99863.63;4445695;32;33987;-66
2022/06/12 09:41:24;;;;;;;3.65;2.35;;;;;;;28.15;34.99;99860.88;4438550;32;34006;-66
2022/06/12 09:44:06;;;;;;;4.90;2.67;;;;;;;28.52;35.40;99858.22;4448177;32;34622;-67
2022/06/12 09:46:40;;;;;;;5.78;2.35;;;;;;;28.55;35.36;99847.56;4442733;32;35266;-67
2022/06/12 09:49:28;;;;;;;5.90;2.62;;;;;;;28.72;35.37;99846.94;4447283;32;33783;-66
2022/06/12 09:52:11;;;;;;;4.68;2.22;;;;;;;29.19;33.60;99841.69;4449846;32;34561;-66
2022/06/12 09:54:58;;;;;;;4.97;2.55;;;;;;;29.21;33.02;99836.78;4449037;32;35278;-67
2022/06/12 09:57:46;;;;;;;5.57;2.72;;;;;;;29.64;33.30;99836.56;4436962;32;32417;-69
2022/06/12 10:00:32;;;;;;;6.53;2.50;;;;;;;29.91;32.04;99836.94;4448867;32;34134;-66
2022/06/12 10:03:14;;;;;;;3.53;2.28;;;;;;;30.26;31.47;99838.88;4449555;32;32872;-67
2022/06/12 10:05:43;;;;;;;5.10;2.60;;;;;;;29.93;31.98;99825.69;4446940;32;33834;-69
2022/06/12 10:08:28;;;;;;;4.43;2.33;;;;;;;30.24;31.63;99826.41;4450364;32;34022;-70
2022/06/12 10:11:17;;;;;;;6.68;2.60;;;;;;;30.18;31.54;99823.50;4447440;32;32926;-68
2022/06/12 10:14:01;;;;;;;4.70;2.10;;;;;;;30.57;30.42;99820.25;4431921;32;32616;-70
2022/06/12 10:16:32;;;;;;;5.07;2.60;;;;;;;30.50;31.15;99819.50;4440278;32;33446;-68
2022/06/12 10:19:26;;;;;;;6.30;2.75;;;;;;;29.85;32.21;99813.06;4443701;32;34778;-69
2022/06/12 10:21:56;;;;;;;4.68;2.53;;;;;;;30.00;31.61;99817.28;4447907;32;34969;-67
2022/06/12 10:24:24;;;;;;;6.32;2.60;;;;;;;30.56;30.89;99804.72;4449696;32;34382;-69
2022/06/12 10:27:14;;;;;;;4.32;2.60;;;;;;;30.52;32.13;99806.31;4449298;32;34725;-68
2022/06/12 10:29:55;;;;;;;4.12;2.67;;;;;;;30.51;31.48;99810.16;4448050;32;34987;-68
2022/06/12 10:32:27;;;;;;;5.37;2.87;;;;;;;30.88;30.88;99807.06;4446150;32;32986;-68
2022/06/12 10:35:14;;;;;;;5.35;2.37;;;;;;;30.62;30.85;99807.34;4448066;32;32557;-66
2022/06/12 10:37:42;;;;;;;4.30;2.50;;;;;;;30.89;30.42;99794.94;4448015;32;34884;-72
2022/06/12 10:40:18;;;;;;;5.90;2.70;;;;;;;30.78;30.50;99808.53;4448996;32;32241;-73
2022/06/12 10:42:53;;;;;;;6.60;2.60;;;;;;;30.51;31.38;99799.97;4447686;32;33959;-68
2022/06/12 10:45:30;;;;;;;5.03;2.80;;;;;;;30.72;30.16;99801.19;4448096;32;34099;-70
2022/06/12 10:48:02;;;;;;;4.43;2.78;;;;;;;30.53;30.59;99805.22;4447407;32;32514;-68
2022/06/12 10:50:32;;;;;;;3.75;2.50;;;;;;;30.95;30.40;99805.84;4446717;32;32580;-67
2022/06/12 10:53:14;;;;;;;4.47;2.37;;;;;;;30.55;30.74;99800.31;4452289;32;35154;-69
2022/06/12 10:56:08;;;;;;;4.97;2.60;;;;;;;31.17;29.89;99794.91;4449494;32;33837;-70
2022/06/12 10:59:03;;;;;;;4.57;2.72;;;;;;;30.78;31.04;99797.50;4447960;32;33567;-67
2022/06/12 11:01:53;;;;;;;4.75;2.72;;;;;;;31.04;31.67;99789.69;4450967;32;34757;-68
2022/06/12 11:04:37;;;;;;;4.55;2.17;;;;;;;30.88;31.19;99794.09;4451165;32;34054;-69
2022/06/12 11:07:11;;;;;;;6.00;2.42;;;;;;;31.41;30.60;99786.53;4449107;32;33843;-69
2022/06/12 11:09:47;;;;;;;4.35;2.70;;;;;;;31.02;29.66;99781.66;4451296;32;32408;-69
2022/06/12 11:12:25;;;;;;;5.60;2.37;;;;;;;30.62;30.29;99784.44;4449320;32;33774;-68
2022/06/12 11:15:15;;;;;;;4.12;2.40;;;;;;;31.07;31.07;99783.66;4450725;32;34656;-69
2022/06/12 11:18:00;;;;;;;3.92;2.37;;;;;;;31.09;30.50;99785.09;4439908;32;34930;-68
2022/06/12 11:20:37;;;;;;;5.65;2.45;;;;;;;30.95;30.90;99791.16;4447603;32;33826;-69
2022/06/12 11:23:17;;;;;;;6.50;2.50;;;;;;;31.15;30.63;99787.97;4448356;32;33092;-69
2022/06/12 11:26:15;;;;;;;4.18;2.65;;;;;;;31.18;30.20;99781.94;4432596;32;32654;-69
2022/06/12 11:28:55;;;;;;;5.70;2.53;;;;;;;31.17;30.75;99781.09;4457068;32;35393;-69
2022/06/12 11:31:48;;;;;;;6.05;2.90;;;;;;;31.03;30.81;99777.81;4450658;32;34364;-70
2022/06/12 11:34:47;;;;;;;5.50;2.65;;;;;;;30.94;30.18;99771.00;4450997;32;32588;-68
2022/06/12 11:37:27;;;;;;;4.62;2.47;;;;;;;30.86;31.02;99777.78;4446044;32;32758;-69
2022/06/12 11:40:15;;;;;;;5.30;2.50;;;;;;;31.06;30.82;99774.53;4446302;32;32819;-68
2022/06/12 11:42:56;;;;;;;4.78;2.87;;;;;;;31.62;30.21;99766.41;4445184;32;33804;-67
2022/06/12 11:45:59;;;;;;;4.82;2.70;;;;;;;31.10;30.47;99781.25;4435065;32;32521;-68
2022/06/12 11:48:53;;;;;;;4.32;2.35;;;;;;;30.99;31.17;99768.34;4441823;32;33776;-67
2022/06/12 11:51:46;;;;;;;5.37;3.10;;;;;;;30.96;29.36;99768.84;4434996;32;32737;-67
2022/06/12 11:54:32;;;;;;;5.15;2.72;;;;;;;30.25;31.41;99765.44;4441362;32;32476;-66
2022/06/12 11:57:37;;;;;;;8.93;2.95;;;;;;;30.23;31.29;99770.38;4442504;32;33822;-70
2022/06/12 12:00:04;;;;;;;4.60;2.90;;;;;;;30.91;30.22;99759.59;4438094;32;33888;-69
2022/06/12 12:03:03;;;;;;;4.40;2.53;;;;;;;30.99;31.80;99771.09;4448223;32;34090;-69
2022/06/12 12:05:46;;;;;;;7.10;2.92;;;;;;;30.99;30.61;99760.03;4450307;32;33280;-67
2022/06/12 12:08:23;;;;;;;4.62;3.17;;;;;;;30.90;30.24;99755.16;4446625;32;33750;-69
2022/06/12 12:10:57;;;;;;;4.93;2.40;;;;;;;30.52;31.37;99765.72;4450325;32;32609;-70
2022/06/12 12:13:29;;;;;;;4.43;2.50;;;;;;;30.75;31.41;99747.38;4451564;32;35015;-69
2022/06/12 12:16:06;;;;;;;4.53;2.55;;;;;;;30.63;30.67;99742.75;4447832;32;32646;-71
2022/06/12 12:18:38;;;;;;;4.50;2.47;;;;;;;31.03;31.11;99746.56;4445336;32;33596;-67
2022/06/12 12:21:11;;;;;;;5.93;2.87;;;;;;;30.33;31.57;99737.44;4449073;32;32582;-67
2022/06/12 12:23:43;;;;;;;6.23;3.37;;;;;;;30.24;32.10;99735.31;4450605;32;32558;-67